Brisbin, PA (16620)

6:27 PM EST on February 08, 2016 (GMT -0500)
The Garden | | Change Station
CLOSE
Current Station
Personal Weather Station
Location: Houtzdale, PA
Elevation: 1578 ft
Nearby Weather Stations

Elev 1578 ft 40.79 °N, 78.37 °W | Updated 5 seconds ago

Overcast
Overcast
36.5 °F
Feels Like 33 °F
N
4.3
Wind Variable Wind from WSW
Gusts 7.4 mph

Today
High -- | Low -- °F
--% Chance of Precip.
Yesterday
High -- | Low -- °F
Precip. -- in
Pressure 29.64 in
Visibility 10.0 miles
Clouds Mostly Cloudy 4800 ft
Overcast 7000 ft
Windchill 33 °F
Dew Point 20 °F
Humidity 51%
Rainfall 0.00 in
Snow Depth Not available.
7:16 AM 5:38 PM
New Moon, 0% visible
METAR KFIG 082254Z AUTO 13005KT 10SM BKN048 OVC070 03/M07 A2960 RMK AO2 SLP037 T00331067
Pressure 29.64 in
Visibility 10.0 miles
Clouds Mostly Cloudy 4800 ft
Overcast 7000 ft
Windchill 33 °F
Dew Point 20 °F
Humidity 51%
Rainfall 0.00 in
Snow Depth Not available.
7:16 AM 5:38 PM
New Moon, 0% visible
METAR KFIG 082254Z AUTO 13005KT 10SM BKN048 OVC070 03/M07 A2960 RMK AO2 SLP037 T00331067

10-Day Weather Forecast

Almanac

Astronomy

Feb. 08, 2016 Rise Set
Actual Time
Civil Twilight
Nautical Twilight
Astronomical Twilight
Moon
Length of Visible Light
Length of Day
Tomorrow will be .
, % of the Moon is Illuminated

Today's Extremes

State Highs State Lows

Community

WunderPhotos

Upload Photos

1,891,525 photos uploaded!

WunderBlog® & News

Nearby

Air Quality

  Air Quality AQ Index Pollutant
Not available.

Snow Depth

Station Depth Elevation

Earthquake Activity

City Distance Mag. Time & Date
Minimum magnitude displayed is 2.5.

Coastal Water Temperatures

Place Temperature

Stations

Nearby Weather Stations

Station Location Temp. Windchill Dew Point Humidity Wind Precip. Elev Updated Type
                   

Watches & Warnings

There are currently no watches in effect.